createdAt,value
2017-09-04T00:00:24.969Z,101062.86
2017-09-04T00:05:26.959Z,101059.03
2017-09-04T00:10:29.067Z,101054.88
2017-09-04T00:15:31.140Z,101053.27
2017-09-04T00:20:33.143Z,101060.30
2017-09-04T00:25:35.099Z,101055.03
2017-09-04T00:30:37.094Z,101062.13
2017-09-04T00:35:39.085Z,101059.94
2017-09-04T00:40:41.084Z,101056.42
2017-09-04T00:45:43.246Z,101062.13
2017-09-04T00:50:45.457Z,101067.52
2017-09-04T00:55:47.519Z,101065.13
2017-09-04T01:00:49.599Z,101063.59
2017-09-04T01:05:51.716Z,101069.56
2017-09-04T01:10:53.741Z,101062.02
2017-09-04T01:15:55.986Z,101054.91
2017-09-04T01:20:57.936Z,101060.41
2017-09-04T01:25:59.975Z,101065.41
2017-09-04T01:31:01.942Z,101057.62
2017-09-04T01:36:03.930Z,101058.77
2017-09-04T01:41:06.072Z,101053.83
2017-09-04T01:46:08.124Z,101056.16
2017-09-04T01:51:10.099Z,101055.06
2017-09-04T01:56:12.174Z,101064.67
2017-09-04T02:01:14.163Z,101054.91
2017-09-04T02:06:16.174Z,101052.52
2017-09-04T02:11:18.194Z,101036.25
2017-09-04T02:16:20.219Z,101042.39
2017-09-04T02:21:22.167Z,101042.84
2017-09-04T02:26:24.170Z,101043.93
2017-09-04T02:31:26.208Z,101047.09
2017-09-04T02:36:28.252Z,101046.19
2017-09-04T02:41:30.204Z,101042.54
2017-09-04T02:46:32.193Z,101049.23
2017-09-04T02:51:34.878Z,101040.70
2017-09-04T02:56:36.921Z,101035.23
2017-09-04T03:01:38.965Z,101040.50
2017-09-04T03:06:40.964Z,101031.55
2017-09-04T03:11:43.132Z,101033.60
2017-09-04T03:16:48.624Z,101017.59
2017-09-04T03:21:52.953Z,101025.24
2017-09-04T03:26:55.010Z,101034.40
2017-09-04T03:31:57.623Z,101022.20
2017-09-04T03:37:03.010Z,101029.09
2017-09-04T03:42:05.685Z,101033.00
2017-09-04T03:47:08.791Z,101024.93
2017-09-04T03:52:12.346Z,101032.67
2017-09-04T03:57:16.942Z,101026.06
2017-09-04T04:02:20.423Z,101033.61
2017-09-04T04:07:22.661Z,101038.23
2017-09-04T04:12:24.995Z,101039.98
2017-09-04T04:17:28.023Z,101047.37
2017-09-04T04:22:31.547Z,101041.48
2017-09-04T04:27:37.080Z,101035.87
2017-09-04T04:32:41.126Z,101038.88
2017-09-04T04:37:43.747Z,101028.06
2017-09-04T04:42:46.313Z,101023.30
2017-09-04T04:47:50.664Z,101036.63
2017-09-04T04:52:56.377Z,101035.55
2017-09-04T04:57:58.515Z,101036.13
2017-09-04T05:03:00.587Z,101038.80
2017-09-04T05:08:02.667Z,101036.43
2017-09-04T05:13:05.198Z,101051.19
2017-09-04T05:18:07.309Z,101064.47
2017-09-04T05:23:09.283Z,101055.25
2017-09-04T05:28:11.352Z,101064.63
2017-09-04T05:33:13.403Z,101061.17
2017-09-04T05:38:15.358Z,101059.93
2017-09-04T05:43:17.390Z,101065.08
2017-09-04T05:48:19.453Z,101059.44
2017-09-04T05:53:21.501Z,101059.80
2017-09-04T05:58:23.495Z,101072.17
2017-09-04T06:03:25.543Z,101059.69
2017-09-04T06:08:27.524Z,101066.56
2017-09-04T06:13:29.580Z,101078.78
2017-09-04T06:18:31.586Z,101078.54
2017-09-04T06:23:33.562Z,101075.91
2017-09-04T06:28:35.612Z,101074.89
2017-09-04T06:33:37.831Z,101075.73
2017-09-04T06:38:39.827Z,101081.82
2017-09-04T06:43:41.917Z,101079.03
2017-09-04T06:48:43.924Z,101072.73
2017-09-04T06:53:45.941Z,101074.77
2017-09-04T06:58:48.155Z,101084.08
2017-09-04T07:03:50.540Z,101079.78
2017-09-04T07:08:54.248Z,101081.32
2017-09-04T07:13:56.462Z,101089.88
2017-09-04T07:18:58.778Z,101102.60
2017-09-04T07:24:01.288Z,101097.69
2017-09-04T07:29:03.893Z,101102.38
2017-09-04T07:34:06.237Z,101104.64
2017-09-04T07:39:08.540Z,101108.70
2017-09-04T07:44:12.970Z,101113.63
2017-09-04T07:49:15.431Z,101110.38
2017-09-04T07:54:17.859Z,101106.83
2017-09-04T07:59:20.307Z,101112.48
2017-09-04T08:04:22.731Z,101111.03
2017-09-04T08:09:25.233Z,101116.81
2017-09-04T08:14:27.598Z,101123.20
2017-09-04T08:19:30.183Z,101126.15
2017-09-04T08:24:32.546Z,101129.06
2017-09-04T08:29:35.014Z,101126.00
2017-09-04T08:34:37.432Z,101133.52
2017-09-04T08:39:39.784Z,101141.51
2017-09-04T08:44:42.065Z,101142.20
2017-09-04T08:49:44.580Z,101155.16
2017-09-04T08:54:46.592Z,101155.45
2017-09-04T08:59:48.929Z,101155.85
2017-09-04T09:04:51.337Z,101161.53
2017-09-04T09:09:53.701Z,101154.63
2017-09-04T09:14:55.730Z,101163.31
2017-09-04T09:19:57.887Z,101166.23
2017-09-04T09:24:59.914Z,101171.48
2017-09-04T09:30:02.208Z,101163.03
2017-09-04T09:35:04.239Z,101162.86
2017-09-04T09:40:06.233Z,101170.43
2017-09-04T09:45:08.216Z,101167.48
2017-09-04T09:50:10.280Z,101171.66
2017-09-04T09:55:14.311Z,101171.74
2017-09-04T10:00:16.394Z,101173.75
2017-09-04T10:05:18.460Z,101168.85
2017-09-04T10:10:20.511Z,101169.88
2017-09-04T10:15:22.556Z,101168.88
2017-09-04T10:20:24.618Z,101161.98
2017-09-04T10:25:26.677Z,101160.31
2017-09-04T10:30:28.722Z,101163.81
2017-09-04T10:35:30.924Z,101170.94
2017-09-04T10:40:33.559Z,101163.67
2017-09-04T10:45:35.636Z,101166.95
2017-09-04T10:50:37.677Z,101171.20
2017-09-04T10:55:39.664Z,101164.30
2017-09-04T11:00:41.681Z,101164.45
2017-09-04T11:05:43.696Z,101168.61
2017-09-04T11:10:45.695Z,101166.90
2017-09-04T11:15:48.707Z,101165.70
2017-09-04T11:20:50.774Z,101167.44
2017-09-04T11:25:52.820Z,101163.96
2017-09-04T11:30:54.918Z,101166.23
2017-09-04T11:35:57.065Z,101166.62
2017-09-04T11:40:59.338Z,101155.47
2017-09-04T11:46:01.801Z,101157.31
2017-09-04T11:51:04.269Z,101154.50
2017-09-04T11:56:06.329Z,101158.77
2017-09-04T12:01:08.453Z,101159.93
2017-09-04T12:06:10.650Z,101160.41
2017-09-04T12:11:12.688Z,101154.93
2017-09-04T12:16:14.662Z,101147.13
2017-09-04T12:21:16.632Z,101156.59
2017-09-04T12:26:18.756Z,101149.20
2017-09-04T12:31:20.791Z,101145.71
2017-09-04T12:36:22.864Z,101139.15
2017-09-04T12:41:24.925Z,101137.66
2017-09-04T12:46:26.918Z,101149.30
2017-09-04T12:51:28.938Z,101140.81
2017-09-04T12:56:30.956Z,101139.75
2017-09-04T13:01:33.046Z,101143.15
2017-09-04T13:06:35.078Z,101134.07
2017-09-04T13:11:42.952Z,101137.66
2017-09-04T13:16:51.063Z,101132.31
2017-09-04T13:21:59.076Z,101140.55
2017-09-04T13:27:07.117Z,101139.24
2017-09-04T13:32:15.667Z,101144.98
2017-09-04T13:37:23.697Z,101150.85
2017-09-04T13:48:11.855Z,101146.65
2017-09-04T14:04:34.731Z,101145.98
2017-09-04T14:21:05.908Z,101146.60
2017-09-04T14:26:07.974Z,101141.05
2017-09-04T14:31:09.996Z,101139.02
2017-09-04T14:36:12.011Z,101137.70
2017-09-04T14:41:19.952Z,101141.56
2017-09-04T14:46:23.902Z,101136.90
2017-09-04T14:51:25.956Z,101141.05
2017-09-04T14:56:28.012Z,101136.73
2017-09-04T15:01:30.071Z,101130.70
2017-09-04T15:06:32.135Z,101129.26
2017-09-04T15:11:34.204Z,101127.53
2017-09-04T15:16:36.222Z,101134.84
2017-09-04T15:21:38.388Z,101133.45
2017-09-04T15:26:40.564Z,101133.13
2017-09-04T15:31:42.595Z,101135.23
2017-09-04T15:36:44.607Z,101127.45
2017-09-04T15:41:47.242Z,101137.57
2017-09-04T15:46:50.282Z,101140.34
2017-09-04T15:51:52.489Z,101147.78
2017-09-04T15:56:54.680Z,101144.67
2017-09-04T16:01:59.369Z,101151.06
2017-09-04T16:12:55.940Z,101173.33
2017-09-04T16:18:13.840Z,101169.63
2017-09-04T16:23:26.803Z,101173.80
2017-09-04T16:28:37.965Z,101167.03
2017-09-04T16:33:49.339Z,101166.64
2017-09-04T16:38:58.991Z,101163.69
2017-09-04T16:44:10.689Z,101167.16
2017-09-04T16:49:22.956Z,101168.52
2017-09-04T16:54:31.156Z,101173.98
2017-09-04T16:59:40.909Z,101177.94
2017-09-04T17:04:49.684Z,101181.89
2017-09-04T17:09:58.464Z,101179.03
2017-09-04T17:15:06.032Z,101180.74
2017-09-04T17:20:18.265Z,101176.06
2017-09-04T17:25:26.460Z,101178.69
2017-09-04T17:30:34.075Z,101180.09
2017-09-04T17:35:46.696Z,101162.34
2017-09-04T17:40:50.212Z,101186.33
2017-09-04T17:45:59.363Z,101197.47
2017-09-04T17:51:03.132Z,101196.03
2017-09-04T17:56:05.661Z,101196.84
2017-09-04T18:01:09.734Z,101207.92
2017-09-04T18:06:13.110Z,101206.89
2017-09-04T18:11:17.531Z,101219.05
2017-09-04T18:16:22.421Z,101222.09
2017-09-04T18:21:33.766Z,101228.55
2017-09-04T18:26:37.934Z,101233.30
2017-09-04T18:31:45.493Z,101244.61
2017-09-04T18:36:53.339Z,101246.92
2017-09-04T18:42:00.240Z,101248.72
2017-09-04T18:47:04.292Z,101247.62
2017-09-04T18:52:08.933Z,101252.52
2017-09-04T18:57:18.675Z,101257.78
2017-09-04T19:02:26.701Z,101261.34
2017-09-04T19:07:34.430Z,101279.95
2017-09-04T19:12:43.517Z,101277.47
2017-09-04T19:17:54.214Z,101276.45
2017-09-04T19:23:00.235Z,101278.61
2017-09-04T19:28:11.305Z,101260.82
2017-09-04T19:33:16.363Z,101278.64
2017-09-04T19:38:23.091Z,101285.02
2017-09-04T19:43:26.883Z,101288.83
2017-09-04T19:48:31.426Z,101294.75
2017-09-04T19:53:34.327Z,101291.73
2017-09-04T19:58:39.049Z,101283.16
2017-09-04T20:03:41.486Z,101288.20
2017-09-04T20:08:45.119Z,101290.48
2017-09-04T20:13:47.848Z,101292.72
2017-09-04T20:18:50.328Z,101288.84
2017-09-04T20:23:52.862Z,101301.48
2017-09-04T20:28:55.757Z,101304.64
2017-09-04T20:34:01.563Z,101306.55
2017-09-04T20:39:04.954Z,101300.75
2017-09-04T20:44:07.414Z,101292.98
2017-09-04T20:49:13.960Z,101298.88
2017-09-04T20:54:16.891Z,101297.95
2017-09-04T20:59:19.496Z,101305.73
2017-09-04T21:04:23.185Z,101309.88
2017-09-04T21:09:26.619Z,101311.33
2017-09-04T21:14:29.194Z,101308.28
2017-09-04T21:19:31.792Z,101308.34
2017-09-04T21:24:35.269Z,101309.15
2017-09-04T21:29:37.716Z,101309.58
2017-09-04T21:34:40.032Z,101306.17
2017-09-04T21:39:42.629Z,101316.56
2017-09-04T21:44:45.114Z,101319.40
2017-09-04T21:49:47.321Z,101319.48
2017-09-04T21:54:49.722Z,101318.62
2017-09-04T21:59:52.322Z,101323.62
2017-09-04T22:04:54.661Z,101334.28
2017-09-04T22:09:57.003Z,101328.77
2017-09-04T22:14:59.217Z,101335.31
2017-09-04T22:20:01.446Z,101333.20
2017-09-04T22:25:03.798Z,101329.58
2017-09-04T22:30:06.297Z,101328.44
2017-09-04T22:35:08.706Z,101332.70
2017-09-04T22:40:11.069Z,101341.87
2017-09-04T22:45:13.453Z,101342.61
2017-09-04T22:50:15.908Z,101347.56
2017-09-04T22:55:18.204Z,101344.44
2017-09-04T23:00:20.724Z,101354.22
2017-09-04T23:05:23.281Z,101350.94
2017-09-04T23:10:26.074Z,101348.16
2017-09-04T23:15:28.357Z,101369.37
2017-09-04T23:20:30.720Z,101368.87
2017-09-04T23:25:33.053Z,101362.53
2017-09-04T23:30:35.308Z,101358.63
2017-09-04T23:35:37.606Z,101360.83
2017-09-04T23:40:39.889Z,101357.09
2017-09-04T23:45:42.192Z,101358.65
2017-09-04T23:50:44.578Z,101358.58
2017-09-04T23:55:47.003Z,101353.42
